sensor_id;sensor_type;location;lat;lon;timestamp;P1;durP1;ratioP1;P2;durP2;ratioP2
78290;SDS011;67543;45.494;9.100;2023-02-15T00:01:49;36.08;;;32.35;;
78290;SDS011;67543;45.494;9.100;2023-02-15T00:04:15;34.85;;;31.15;;
78290;SDS011;67543;45.494;9.100;2023-02-15T00:06:42;35.72;;;29.92;;
78290;SDS011;67543;45.494;9.100;2023-02-15T00:09:11;32.95;;;29.15;;
78290;SDS011;67543;45.494;9.100;2023-02-15T00:11:37;34.40;;;28.75;;
78290;SDS011;67543;45.494;9.100;2023-02-15T00:14:12;37.45;;;29.38;;
78290;SDS011;67543;45.494;9.100;2023-02-15T00:16:39;33.85;;;30.42;;
78290;SDS011;67543;45.494;9.100;2023-02-15T00:19:05;38.55;;;32.38;;
78290;SDS011;67543;45.494;9.100;2023-02-15T00:21:31;35.38;;;31.00;;
78290;SDS011;67543;45.494;9.100;2023-02-15T00:23:57;34.20;;;28.88;;
78290;SDS011;67543;45.494;9.100;2023-02-15T00:26:24;32.55;;;29.15;;
78290;SDS011;67543;45.494;9.100;2023-02-15T00:28:49;33.92;;;30.63;;
78290;SDS011;67543;45.494;9.100;2023-02-15T00:31:15;31.75;;;27.27;;
78290;SDS011;67543;45.494;9.100;2023-02-15T00:33:40;33.55;;;28.38;;
78290;SDS011;67543;45.494;9.100;2023-02-15T00:36:06;33.43;;;30.17;;
78290;SDS011;67543;45.494;9.100;2023-02-15T00:38:33;31.17;;;27.95;;
78290;SDS011;67543;45.494;9.100;2023-02-15T00:41:00;28.42;;;25.17;;
78290;SDS011;67543;45.494;9.100;2023-02-15T00:43:27;31.05;;;27.27;;
78290;SDS011;67543;45.494;9.100;2023-02-15T00:45:53;28.65;;;25.55;;
78290;SDS011;67543;45.494;9.100;2023-02-15T00:48:18;31.02;;;27.88;;
78290;SDS011;67543;45.494;9.100;2023-02-15T00:50:45;30.83;;;27.52;;
78290;SDS011;67543;45.494;9.100;2023-02-15T00:53:11;29.42;;;26.40;;
78290;SDS011;67543;45.494;9.100;2023-02-15T00:55:37;29.00;;;25.35;;
78290;SDS011;67543;45.494;9.100;2023-02-15T00:58:04;28.88;;;25.63;;
78290;SDS011;67543;45.494;9.100;2023-02-15T01:00:29;29.35;;;24.42;;
78290;SDS011;67543;45.494;9.100;2023-02-15T01:02:54;28.92;;;23.55;;
78290;SDS011;67543;45.494;9.100;2023-02-15T01:05:20;26.05;;;23.20;;
78290;SDS011;67543;45.494;9.100;2023-02-15T01:07:45;29.87;;;24.53;;
78290;SDS011;67543;45.494;9.100;2023-02-15T01:10:10;27.67;;;22.95;;
78290;SDS011;67543;45.494;9.100;2023-02-15T01:12:36;28.37;;;24.67;;
78290;SDS011;67543;45.494;9.100;2023-02-15T01:15:01;26.00;;;23.02;;
78290;SDS011;67543;45.494;9.100;2023-02-15T01:17:26;29.10;;;22.83;;
78290;SDS011;67543;45.494;9.100;2023-02-15T01:19:52;26.88;;;22.75;;
78290;SDS011;67543;45.494;9.100;2023-02-15T01:22:17;28.05;;;22.75;;
78290;SDS011;67543;45.494;9.100;2023-02-15T01:24:43;26.42;;;21.95;;
78290;SDS011;67543;45.494;9.100;2023-02-15T01:27:09;25.23;;;20.88;;
78290;SDS011;67543;45.494;9.100;2023-02-15T01:29:34;25.75;;;22.17;;
78290;SDS011;67543;45.494;9.100;2023-02-15T01:31:59;28.67;;;21.58;;
78290;SDS011;67543;45.494;9.100;2023-02-15T01:34:25;25.08;;;20.15;;
78290;SDS011;67543;45.494;9.100;2023-02-15T01:36:50;25.98;;;22.02;;
78290;SDS011;67543;45.494;9.100;2023-02-15T01:39:15;29.13;;;24.85;;
78290;SDS011;67543;45.494;9.100;2023-02-15T01:41:41;26.02;;;23.27;;
78290;SDS011;67543;45.494;9.100;2023-02-15T01:47:10;27.40;;;20.60;;
78290;SDS011;67543;45.494;9.100;2023-02-15T01:49:40;26.13;;;23.25;;
78290;SDS011;67543;45.494;9.100;2023-02-15T01:52:09;26.02;;;21.52;;
78290;SDS011;67543;45.494;9.100;2023-02-15T01:54:34;26.27;;;20.35;;
78290;SDS011;67543;45.494;9.100;2023-02-15T01:57:03;23.73;;;20.67;;
78290;SDS011;67543;45.494;9.100;2023-02-15T01:59:34;23.50;;;20.02;;
78290;SDS011;67543;45.494;9.100;2023-02-15T02:02:01;29.13;;;21.77;;
78290;SDS011;67543;45.494;9.100;2023-02-15T02:04:31;26.45;;;19.77;;
78290;SDS011;67543;45.494;9.100;2023-02-15T02:07:00;25.73;;;20.85;;
78290;SDS011;67543;45.494;9.100;2023-02-15T02:09:26;25.65;;;20.05;;
78290;SDS011;67543;45.494;9.100;2023-02-15T02:11:51;25.53;;;20.80;;
78290;SDS011;67543;45.494;9.100;2023-02-15T02:14:19;25.02;;;21.45;;
78290;SDS011;67543;45.494;9.100;2023-02-15T02:30:24;28.30;;;21.40;;
78290;SDS011;67543;45.494;9.100;2023-02-15T02:40:56;25.33;;;20.13;;
78290;SDS011;67543;45.494;9.100;2023-02-15T02:43:40;28.95;;;21.92;;
78290;SDS011;67543;45.494;9.100;2023-02-15T02:46:13;25.15;;;20.60;;
78290;SDS011;67543;45.494;9.100;2023-02-15T02:48:43;26.73;;;19.27;;
78290;SDS011;67543;45.494;9.100;2023-02-15T02:51:09;25.60;;;19.55;;
78290;SDS011;67543;45.494;9.100;2023-02-15T02:53:34;23.27;;;18.52;;
78290;SDS011;67543;45.494;9.100;2023-02-15T02:56:05;19.90;;;17.80;;
78290;SDS011;67543;45.494;9.100;2023-02-15T02:58:39;26.08;;;19.35;;
78290;SDS011;67543;45.494;9.100;2023-02-15T03:03:44;25.63;;;19.30;;
78290;SDS011;67543;45.494;9.100;2023-02-15T03:06:15;24.98;;;19.95;;
78290;SDS011;67543;45.494;9.100;2023-02-15T03:08:45;23.98;;;18.38;;
78290;SDS011;67543;45.494;9.100;2023-02-15T03:11:13;24.20;;;17.65;;
78290;SDS011;67543;45.494;9.100;2023-02-15T03:13:38;23.92;;;18.13;;
78290;SDS011;67543;45.494;9.100;2023-02-15T03:16:04;25.85;;;21.17;;
78290;SDS011;67543;45.494;9.100;2023-02-15T03:18:51;25.92;;;18.38;;
78290;SDS011;67543;45.494;9.100;2023-02-15T03:21:30;25.50;;;18.98;;
78290;SDS011;67543;45.494;9.100;2023-02-15T03:23:59;26.75;;;17.35;;
78290;SDS011;67543;45.494;9.100;2023-02-15T03:26:30;22.52;;;16.85;;
78290;SDS011;67543;45.494;9.100;2023-02-15T03:28:55;24.65;;;18.45;;
78290;SDS011;67543;45.494;9.100;2023-02-15T03:31:23;24.85;;;18.27;;
78290;SDS011;67543;45.494;9.100;2023-02-15T03:33:54;24.60;;;19.90;;
78290;SDS011;67543;45.494;9.100;2023-02-15T03:41:24;24.13;;;17.75;;
78290;SDS011;67543;45.494;9.100;2023-02-15T03:46:22;23.17;;;18.17;;
78290;SDS011;67543;45.494;9.100;2023-02-15T03:48:54;24.55;;;17.77;;
78290;SDS011;67543;45.494;9.100;2023-02-15T03:51:29;22.52;;;19.33;;
78290;SDS011;67543;45.494;9.100;2023-02-15T03:54:05;21.55;;;17.40;;
78290;SDS011;67543;45.494;9.100;2023-02-15T03:56:33;23.50;;;16.90;;
78290;SDS011;67543;45.494;9.100;2023-02-15T03:59:00;26.60;;;18.42;;
78290;SDS011;67543;45.494;9.100;2023-02-15T04:01:52;23.35;;;16.95;;
78290;SDS011;67543;45.494;9.100;2023-02-15T04:04:25;21.48;;;17.20;;
78290;SDS011;67543;45.494;9.100;2023-02-15T04:06:53;19.40;;;16.13;;
78290;SDS011;67543;45.494;9.100;2023-02-15T04:09:18;24.80;;;17.92;;
78290;SDS011;67543;45.494;9.100;2023-02-15T04:12:02;21.88;;;17.00;;
78290;SDS011;67543;45.494;9.100;2023-02-15T04:14:28;24.77;;;16.98;;
78290;SDS011;67543;45.494;9.100;2023-02-15T04:17:12;24.00;;;16.50;;
78290;SDS011;67543;45.494;9.100;2023-02-15T04:19:37;24.02;;;19.17;;
78290;SDS011;67543;45.494;9.100;2023-02-15T04:22:21;23.20;;;16.90;;
78290;SDS011;67543;45.494;9.100;2023-02-15T04:25:05;19.77;;;17.50;;
78290;SDS011;67543;45.494;9.100;2023-02-15T04:27:43;23.45;;;17.33;;
78290;SDS011;67543;45.494;9.100;2023-02-15T04:30:14;22.58;;;16.17;;
78290;SDS011;67543;45.494;9.100;2023-02-15T04:32:41;21.17;;;17.35;;
78290;SDS011;67543;45.494;9.100;2023-02-15T04:35:06;22.70;;;17.67;;
78290;SDS011;67543;45.494;9.100;2023-02-15T04:37:32;21.23;;;16.65;;
78290;SDS011;67543;45.494;9.100;2023-02-15T04:39:58;22.23;;;18.42;;
78290;SDS011;67543;45.494;9.100;2023-02-15T04:42:23;23.70;;;16.60;;
78290;SDS011;67543;45.494;9.100;2023-02-15T04:44:52;23.02;;;16.65;;
78290;SDS011;67543;45.494;9.100;2023-02-15T04:47:18;24.75;;;19.60;;
78290;SDS011;67543;45.494;9.100;2023-02-15T04:49:44;20.20;;;15.55;;
78290;SDS011;67543;45.494;9.100;2023-02-15T04:52:10;21.55;;;16.25;;
78290;SDS011;67543;45.494;9.100;2023-02-15T04:54:35;22.95;;;16.15;;
78290;SDS011;67543;45.494;9.100;2023-02-15T04:57:00;22.05;;;16.42;;
78290;SDS011;67543;45.494;9.100;2023-02-15T04:59:26;21.25;;;15.82;;
78290;SDS011;67543;45.494;9.100;2023-02-15T05:01:53;22.33;;;18.08;;
78290;SDS011;67543;45.494;9.100;2023-02-15T05:04:18;22.58;;;15.82;;
78290;SDS011;67543;45.494;9.100;2023-02-15T05:06:43;21.17;;;15.90;;
78290;SDS011;67543;45.494;9.100;2023-02-15T05:09:10;21.80;;;17.40;;
78290;SDS011;67543;45.494;9.100;2023-02-15T05:11:36;22.05;;;16.10;;
78290;SDS011;67543;45.494;9.100;2023-02-15T05:14:01;19.35;;;15.30;;
78290;SDS011;67543;45.494;9.100;2023-02-15T05:16:26;22.40;;;15.82;;
78290;SDS011;67543;45.494;9.100;2023-02-15T05:18:52;20.00;;;16.10;;
78290;SDS011;67543;45.494;9.100;2023-02-15T05:21:23;20.57;;;15.93;;
78290;SDS011;67543;45.494;9.100;2023-02-15T05:23:48;21.10;;;15.13;;
78290;SDS011;67543;45.494;9.100;2023-02-15T05:26:18;22.05;;;15.20;;
78290;SDS011;67543;45.494;9.100;2023-02-15T05:29:03;19.45;;;14.63;;
78290;SDS011;67543;45.494;9.100;2023-02-15T05:31:30;21.13;;;14.88;;
78290;SDS011;67543;45.494;9.100;2023-02-15T05:33:55;19.55;;;14.52;;
78290;SDS011;67543;45.494;9.100;2023-02-15T05:36:21;21.02;;;15.93;;
78290;SDS011;67543;45.494;9.100;2023-02-15T05:38:46;19.23;;;15.15;;
78290;SDS011;67543;45.494;9.100;2023-02-15T05:41:11;21.15;;;16.05;;
78290;SDS011;67543;45.494;9.100;2023-02-15T05:43:37;20.40;;;13.93;;
78290;SDS011;67543;45.494;9.100;2023-02-15T05:46:03;18.23;;;13.55;;
78290;SDS011;67543;45.494;9.100;2023-02-15T05:48:29;21.30;;;12.45;;
78290;SDS011;67543;45.494;9.100;2023-02-15T05:51:02;18.75;;;15.52;;
78290;SDS011;67543;45.494;9.100;2023-02-15T05:53:30;16.55;;;12.85;;
78290;SDS011;67543;45.494;9.100;2023-02-15T05:55:56;17.50;;;13.73;;
78290;SDS011;67543;45.494;9.100;2023-02-15T05:58:24;16.90;;;13.95;;
78290;SDS011;67543;45.494;9.100;2023-02-15T06:00:56;18.65;;;13.38;;
78290;SDS011;67543;45.494;9.100;2023-02-15T06:03:22;18.00;;;13.20;;
78290;SDS011;67543;45.494;9.100;2023-02-15T06:05:48;17.33;;;12.88;;
78290;SDS011;67543;45.494;9.100;2023-02-15T06:08:13;15.48;;;12.20;;
78290;SDS011;67543;45.494;9.100;2023-02-15T06:10:39;17.48;;;13.43;;
78290;SDS011;67543;45.494;9.100;2023-02-15T06:13:05;17.85;;;13.13;;
78290;SDS011;67543;45.494;9.100;2023-02-15T06:15:31;16.83;;;11.95;;
78290;SDS011;67543;45.494;9.100;2023-02-15T06:17:56;16.05;;;12.82;;
78290;SDS011;67543;45.494;9.100;2023-02-15T06:20:21;15.77;;;13.57;;
78290;SDS011;67543;45.494;9.100;2023-02-15T06:22:47;15.93;;;11.82;;
78290;SDS011;67543;45.494;9.100;2023-02-15T06:25:12;20.23;;;13.52;;
78290;SDS011;67543;45.494;9.100;2023-02-15T06:27:38;23.60;;;14.00;;
78290;SDS011;67543;45.494;9.100;2023-02-15T06:30:06;23.77;;;16.13;;
78290;SDS011;67543;45.494;9.100;2023-02-15T06:32:32;34.03;;;21.80;;
78290;SDS011;67543;45.494;9.100;2023-02-15T06:34:57;41.80;;;24.15;;
78290;SDS011;67543;45.494;9.100;2023-02-15T06:37:23;31.55;;;18.35;;
78290;SDS011;67543;45.494;9.100;2023-02-15T06:39:48;31.08;;;19.80;;
78290;SDS011;67543;45.494;9.100;2023-02-15T06:42:13;27.13;;;17.40;;
78290;SDS011;67543;45.494;9.100;2023-02-15T06:44:39;30.45;;;17.02;;
78290;SDS011;67543;45.494;9.100;2023-02-15T06:47:04;26.13;;;16.48;;
78290;SDS011;67543;45.494;9.100;2023-02-15T06:49:30;31.92;;;18.40;;
78290;SDS011;67543;45.494;9.100;2023-02-15T06:51:55;26.25;;;14.98;;
78290;SDS011;67543;45.494;9.100;2023-02-15T06:54:20;22.85;;;15.82;;
78290;SDS011;67543;45.494;9.100;2023-02-15T06:56:46;22.73;;;15.38;;
78290;SDS011;67543;45.494;9.100;2023-02-15T06:59:11;22.52;;;14.77;;
78290;SDS011;67543;45.494;9.100;2023-02-15T07:01:36;23.67;;;16.58;;
78290;SDS011;67543;45.494;9.100;2023-02-15T07:04:02;23.08;;;16.00;;
78290;SDS011;67543;45.494;9.100;2023-02-15T07:06:30;22.27;;;15.93;;
78290;SDS011;67543;45.494;9.100;2023-02-15T07:08:58;22.65;;;15.07;;
78290;SDS011;67543;45.494;9.100;2023-02-15T07:11:23;18.65;;;14.48;;
78290;SDS011;67543;45.494;9.100;2023-02-15T07:14:07;19.90;;;14.32;;
78290;SDS011;67543;45.494;9.100;2023-02-15T07:16:33;20.40;;;14.50;;
78290;SDS011;67543;45.494;9.100;2023-02-15T07:18:58;20.17;;;14.20;;
78290;SDS011;67543;45.494;9.100;2023-02-15T07:21:24;18.48;;;13.27;;
78290;SDS011;67543;45.494;9.100;2023-02-15T07:23:49;20.80;;;13.70;;
78290;SDS011;67543;45.494;9.100;2023-02-15T07:26:14;18.55;;;13.85;;
78290;SDS011;67543;45.494;9.100;2023-02-15T07:28:40;18.20;;;14.10;;
78290;SDS011;67543;45.494;9.100;2023-02-15T07:31:05;21.20;;;13.38;;
78290;SDS011;67543;45.494;9.100;2023-02-15T07:33:31;21.77;;;13.48;;
78290;SDS011;67543;45.494;9.100;2023-02-15T07:35:57;15.82;;;11.85;;
78290;SDS011;67543;45.494;9.100;2023-02-15T07:38:34;19.42;;;14.40;;
78290;SDS011;67543;45.494;9.100;2023-02-15T07:41:02;17.77;;;12.63;;
78290;SDS011;67543;45.494;9.100;2023-02-15T07:43:32;16.73;;;11.02;;
78290;SDS011;67543;45.494;9.100;2023-02-15T07:45:59;17.77;;;12.10;;
78290;SDS011;67543;45.494;9.100;2023-02-15T07:48:25;17.80;;;13.70;;
78290;SDS011;67543;45.494;9.100;2023-02-15T07:50:51;17.45;;;12.02;;
78290;SDS011;67543;45.494;9.100;2023-02-15T07:53:16;15.45;;;11.65;;
78290;SDS011;67543;45.494;9.100;2023-02-15T07:55:42;15.98;;;11.68;;
78290;SDS011;67543;45.494;9.100;2023-02-15T07:58:07;13.13;;;9.38;;
78290;SDS011;67543;45.494;9.100;2023-02-15T08:00:33;16.55;;;10.73;;
78290;SDS011;67543;45.494;9.100;2023-02-15T08:03:18;16.27;;;10.40;;
78290;SDS011;67543;45.494;9.100;2023-02-15T08:05:44;14.38;;;11.55;;
78290;SDS011;67543;45.494;9.100;2023-02-15T08:08:10;19.20;;;11.80;;
78290;SDS011;67543;45.494;9.100;2023-02-15T08:11:09;13.70;;;10.15;;
78290;SDS011;67543;45.494;9.100;2023-02-15T08:16:30;14.30;;;11.05;;
78290;SDS011;67543;45.494;9.100;2023-02-15T08:18:56;13.73;;;9.93;;
78290;SDS011;67543;45.494;9.100;2023-02-15T08:21:22;15.43;;;10.73;;
78290;SDS011;67543;45.494;9.100;2023-02-15T08:23:48;15.98;;;10.27;;
78290;SDS011;67543;45.494;9.100;2023-02-15T08:26:13;17.58;;;12.80;;
78290;SDS011;67543;45.494;9.100;2023-02-15T08:28:40;20.00;;;11.60;;
78290;SDS011;67543;45.494;9.100;2023-02-15T08:33:32;14.93;;;10.73;;
78290;SDS011;67543;45.494;9.100;2023-02-15T08:36:01;15.60;;;12.35;;
78290;SDS011;67543;45.494;9.100;2023-02-15T08:38:28;16.52;;;9.93;;
78290;SDS011;67543;45.494;9.100;2023-02-15T08:40:53;16.37;;;10.70;;
78290;SDS011;67543;45.494;9.100;2023-02-15T08:43:19;14.30;;;10.23;;
78290;SDS011;67543;45.494;9.100;2023-02-15T08:45:44;13.70;;;10.37;;
78290;SDS011;67543;45.494;9.100;2023-02-15T08:48:09;12.88;;;10.50;;
78290;SDS011;67543;45.494;9.100;2023-02-15T08:50:35;14.55;;;9.57;;
78290;SDS011;67543;45.494;9.100;2023-02-15T08:53:00;12.88;;;10.07;;
78290;SDS011;67543;45.494;9.100;2023-02-15T08:55:26;13.65;;;10.50;;
78290;SDS011;67543;45.494;9.100;2023-02-15T08:57:51;16.00;;;11.18;;
78290;SDS011;67543;45.494;9.100;2023-02-15T09:00:20;13.23;;;10.27;;
78290;SDS011;67543;45.494;9.100;2023-02-15T09:02:47;17.65;;;11.60;;
78290;SDS011;67543;45.494;9.100;2023-02-15T09:05:12;14.50;;;10.50;;
78290;SDS011;67543;45.494;9.100;2023-02-15T09:07:38;16.55;;;9.57;;
78290;SDS011;67543;45.494;9.100;2023-02-15T09:10:04;14.85;;;10.07;;
78290;SDS011;67543;45.494;9.100;2023-02-15T09:12:30;15.73;;;9.45;;
78290;SDS011;67543;45.494;9.100;2023-02-15T09:14:56;12.85;;;10.52;;
78290;SDS011;67543;45.494;9.100;2023-02-15T09:17:21;17.20;;;10.40;;
78290;SDS011;67543;45.494;9.100;2023-02-15T09:19:46;15.90;;;9.83;;
78290;SDS011;67543;45.494;9.100;2023-02-15T09:22:12;18.60;;;10.50;;
78290;SDS011;67543;45.494;9.100;2023-02-15T09:24:37;16.20;;;10.40;;
78290;SDS011;67543;45.494;9.100;2023-02-15T09:27:03;16.88;;;10.48;;
78290;SDS011;67543;45.494;9.100;2023-02-15T09:29:28;16.73;;;10.43;;
78290;SDS011;67543;45.494;9.100;2023-02-15T09:31:53;19.30;;;10.90;;
78290;SDS011;67543;45.494;9.100;2023-02-15T09:34:20;19.45;;;11.57;;
78290;SDS011;67543;45.494;9.100;2023-02-15T09:36:46;14.85;;;10.13;;
78290;SDS011;67543;45.494;9.100;2023-02-15T09:39:13;24.65;;;12.50;;
78290;SDS011;67543;45.494;9.100;2023-02-15T09:41:46;17.30;;;9.98;;
78290;SDS011;67543;45.494;9.100;2023-02-15T09:47:09;20.73;;;11.10;;
78290;SDS011;67543;45.494;9.100;2023-02-15T09:50:10;15.45;;;9.52;;
78290;SDS011;67543;45.494;9.100;2023-02-15T09:53:05;16.85;;;10.07;;
78290;SDS011;67543;45.494;9.100;2023-02-15T09:55:55;16.42;;;10.90;;
78290;SDS011;67543;45.494;9.100;2023-02-15T10:01:25;18.58;;;12.60;;
78290;SDS011;67543;45.494;9.100;2023-02-15T10:07:11;17.92;;;10.40;;
78290;SDS011;67543;45.494;9.100;2023-02-15T10:09:49;19.60;;;11.57;;
78290;SDS011;67543;45.494;9.100;2023-02-15T10:12:39;17.75;;;12.15;;
78290;SDS011;67543;45.494;9.100;2023-02-15T10:15:23;17.77;;;10.82;;
78290;SDS011;67543;45.494;9.100;2023-02-15T10:18:16;15.75;;;10.18;;
78290;SDS011;67543;45.494;9.100;2023-02-15T10:26:01;17.35;;;10.65;;
78290;SDS011;67543;45.494;9.100;2023-02-15T10:31:23;18.73;;;12.30;;
78290;SDS011;67543;45.494;9.100;2023-02-15T10:34:05;15.88;;;10.48;;
78290;SDS011;67543;45.494;9.100;2023-02-15T10:37:03;18.02;;;11.75;;
78290;SDS011;67543;45.494;9.100;2023-02-15T10:50:41;21.95;;;12.93;;
78290;SDS011;67543;45.494;9.100;2023-02-15T11:01:50;15.45;;;11.70;;
78290;SDS011;67543;45.494;9.100;2023-02-15T11:07:02;16.35;;;10.70;;
78290;SDS011;67543;45.494;9.100;2023-02-15T11:09:38;15.02;;;11.20;;
78290;SDS011;67543;45.494;9.100;2023-02-15T11:12:08;18.58;;;9.95;;
78290;SDS011;67543;45.494;9.100;2023-02-15T11:17:25;18.13;;;10.63;;
78290;SDS011;67543;45.494;9.100;2023-02-15T11:19:58;17.30;;;11.68;;
78290;SDS011;67543;45.494;9.100;2023-02-15T11:22:30;16.08;;;9.68;;
78290;SDS011;67543;45.494;9.100;2023-02-15T11:24:57;16.45;;;11.02;;
78290;SDS011;67543;45.494;9.100;2023-02-15T11:27:25;13.18;;;10.95;;
78290;SDS011;67543;45.494;9.100;2023-02-15T11:30:04;16.40;;;10.27;;
78290;SDS011;67543;45.494;9.100;2023-02-15T11:32:44;15.82;;;11.07;;
78290;SDS011;67543;45.494;9.100;2023-02-15T11:37:46;17.27;;;12.90;;
78290;SDS011;67543;45.494;9.100;2023-02-15T11:40:25;15.27;;;10.77;;
78290;SDS011;67543;45.494;9.100;2023-02-15T11:42:51;15.75;;;11.52;;
78290;SDS011;67543;45.494;9.100;2023-02-15T11:47:57;16.80;;;10.52;;
78290;SDS011;67543;45.494;9.100;2023-02-15T11:50:24;15.13;;;10.27;;
78290;SDS011;67543;45.494;9.100;2023-02-15T11:52:52;16.67;;;11.63;;
78290;SDS011;67543;45.494;9.100;2023-02-15T11:55:22;15.32;;;10.65;;
78290;SDS011;67543;45.494;9.100;2023-02-15T11:58:33;16.40;;;10.73;;
78290;SDS011;67543;45.494;9.100;2023-02-15T12:00:56;17.27;;;11.52;;
78290;SDS011;67543;45.494;9.100;2023-02-15T12:03:33;15.93;;;10.75;;
78290;SDS011;67543;45.494;9.100;2023-02-15T12:06:33;16.85;;;11.55;;
78290;SDS011;67543;45.494;9.100;2023-02-15T12:09:06;16.67;;;10.52;;
78290;SDS011;67543;45.494;9.100;2023-02-15T12:11:44;15.35;;;10.52;;
78290;SDS011;67543;45.494;9.100;2023-02-15T12:14:10;15.50;;;10.88;;
78290;SDS011;67543;45.494;9.100;2023-02-15T12:16:41;13.13;;;10.52;;
78290;SDS011;67543;45.494;9.100;2023-02-15T12:21:56;15.35;;;10.45;;
78290;SDS011;67543;45.494;9.100;2023-02-15T12:24:23;15.18;;;10.85;;
78290;SDS011;67543;45.494;9.100;2023-02-15T12:29:50;15.23;;;10.93;;
78290;SDS011;67543;45.494;9.100;2023-02-15T12:32:27;15.55;;;10.50;;
78290;SDS011;67543;45.494;9.100;2023-02-15T12:34:55;14.82;;;11.20;;
78290;SDS011;67543;45.494;9.100;2023-02-15T12:39:55;14.60;;;10.27;;
78290;SDS011;67543;45.494;9.100;2023-02-15T12:42:22;16.05;;;11.90;;
78290;SDS011;67543;45.494;9.100;2023-02-15T12:45:03;15.20;;;10.48;;
78290;SDS011;67543;45.494;9.100;2023-02-15T12:47:30;16.15;;;9.85;;
78290;SDS011;67543;45.494;9.100;2023-02-15T12:50:10;23.08;;;13.77;;
78290;SDS011;67543;45.494;9.100;2023-02-15T12:52:44;36.67;;;21.58;;
78290;SDS011;67543;45.494;9.100;2023-02-15T12:55:21;47.72;;;27.90;;
78290;SDS011;67543;45.494;9.100;2023-02-15T12:57:48;48.38;;;23.50;;
78290;SDS011;67543;45.494;9.100;2023-02-15T13:02:47;55.80;;;29.02;;
78290;SDS011;67543;45.494;9.100;2023-02-15T13:05:16;60.33;;;28.77;;
78290;SDS011;67543;45.494;9.100;2023-02-15T13:07:48;56.85;;;28.10;;
78290;SDS011;67543;45.494;9.100;2023-02-15T13:10:26;55.95;;;26.85;;
78290;SDS011;67543;45.494;9.100;2023-02-15T13:12:54;51.80;;;27.70;;
78290;SDS011;67543;45.494;9.100;2023-02-15T13:18:04;48.50;;;25.90;;
78290;SDS011;67543;45.494;9.100;2023-02-15T13:20:30;46.67;;;23.55;;
78290;SDS011;67543;45.494;9.100;2023-02-15T13:22:58;47.88;;;26.45;;
78290;SDS011;67543;45.494;9.100;2023-02-15T13:25:28;43.42;;;23.13;;
78290;SDS011;67543;45.494;9.100;2023-02-15T13:27:57;56.72;;;29.52;;
78290;SDS011;67543;45.494;9.100;2023-02-15T13:33:02;44.80;;;26.73;;
78290;SDS011;67543;45.494;9.100;2023-02-15T13:35:33;49.08;;;25.52;;
78290;SDS011;67543;45.494;9.100;2023-02-15T13:38:06;49.72;;;26.48;;
78290;SDS011;67543;45.494;9.100;2023-02-15T13:43:25;48.78;;;25.55;;
78290;SDS011;67543;45.494;9.100;2023-02-15T14:00:03;41.17;;;22.27;;
78290;SDS011;67543;45.494;9.100;2023-02-15T14:10:57;42.35;;;22.65;;
78290;SDS011;67543;45.494;9.100;2023-02-15T14:15:58;41.83;;;23.60;;
78290;SDS011;67543;45.494;9.100;2023-02-15T14:18:40;44.92;;;24.27;;
78290;SDS011;67543;45.494;9.100;2023-02-15T14:23:48;46.38;;;23.40;;
78290;SDS011;67543;45.494;9.100;2023-02-15T14:32:12;39.45;;;22.73;;
78290;SDS011;67543;45.494;9.100;2023-02-15T14:34:44;46.03;;;24.13;;
78290;SDS011;67543;45.494;9.100;2023-02-15T14:37:12;42.72;;;23.55;;
78290;SDS011;67543;45.494;9.100;2023-02-15T14:42:47;39.97;;;20.88;;
78290;SDS011;67543;45.494;9.100;2023-02-15T14:48:02;40.03;;;22.83;;
78290;SDS011;67543;45.494;9.100;2023-02-15T14:50:49;42.13;;;19.90;;
78290;SDS011;67543;45.494;9.100;2023-02-15T14:58:35;35.20;;;19.75;;
78290;SDS011;67543;45.494;9.100;2023-02-15T15:01:06;36.65;;;18.98;;
78290;SDS011;67543;45.494;9.100;2023-02-15T15:03:33;34.67;;;20.52;;
78290;SDS011;67543;45.494;9.100;2023-02-15T15:06:01;32.42;;;18.08;;
78290;SDS011;67543;45.494;9.100;2023-02-15T15:08:36;33.33;;;19.13;;
78290;SDS011;67543;45.494;9.100;2023-02-15T15:14:07;31.95;;;16.67;;
78290;SDS011;67543;45.494;9.100;2023-02-15T15:19:02;32.97;;;18.33;;
78290;SDS011;67543;45.494;9.100;2023-02-15T15:32:39;25.33;;;15.50;;
78290;SDS011;67543;45.494;9.100;2023-02-15T15:37:44;24.37;;;15.23;;
78290;SDS011;67543;45.494;9.100;2023-02-15T15:48:19;21.98;;;12.20;;
78290;SDS011;67543;45.494;9.100;2023-02-15T15:50:47;21.05;;;13.38;;
78290;SDS011;67543;45.494;9.100;2023-02-15T15:53:25;22.67;;;11.82;;
78290;SDS011;67543;45.494;9.100;2023-02-15T15:55:53;20.83;;;13.45;;
78290;SDS011;67543;45.494;9.100;2023-02-15T15:58:21;19.25;;;11.60;;
78290;SDS011;67543;45.494;9.100;2023-02-15T16:01:04;19.08;;;13.45;;
78290;SDS011;67543;45.494;9.100;2023-02-15T16:03:36;18.05;;;12.45;;
78290;SDS011;67543;45.494;9.100;2023-02-15T16:06:01;18.60;;;11.83;;
78290;SDS011;67543;45.494;9.100;2023-02-15T16:08:31;17.33;;;10.90;;
78290;SDS011;67543;45.494;9.100;2023-02-15T16:10:58;16.88;;;10.75;;
78290;SDS011;67543;45.494;9.100;2023-02-15T16:13:25;14.18;;;10.65;;
78290;SDS011;67543;45.494;9.100;2023-02-15T16:15:52;16.20;;;10.68;;
78290;SDS011;67543;45.494;9.100;2023-02-15T16:18:20;19.98;;;11.05;;
78290;SDS011;67543;45.494;9.100;2023-02-15T16:20:51;17.77;;;11.35;;
78290;SDS011;67543;45.494;9.100;2023-02-15T16:28:49;17.67;;;10.40;;
78290;SDS011;67543;45.494;9.100;2023-02-15T16:31:19;17.10;;;10.68;;
78290;SDS011;67543;45.494;9.100;2023-02-15T16:33:45;19.52;;;11.48;;
78290;SDS011;67543;45.494;9.100;2023-02-15T16:36:11;17.95;;;12.02;;
78290;SDS011;67543;45.494;9.100;2023-02-15T16:41:06;15.57;;;9.43;;
78290;SDS011;67543;45.494;9.100;2023-02-15T16:43:31;14.77;;;9.93;;
78290;SDS011;67543;45.494;9.100;2023-02-15T16:46:04;12.65;;;8.35;;
78290;SDS011;67543;45.494;9.100;2023-02-15T16:48:31;15.15;;;8.90;;
78290;SDS011;67543;45.494;9.100;2023-02-15T16:50:57;15.32;;;9.55;;
78290;SDS011;67543;45.494;9.100;2023-02-15T16:53:27;13.13;;;8.38;;
78290;SDS011;67543;45.494;9.100;2023-02-15T16:55:54;14.55;;;9.55;;
78290;SDS011;67543;45.494;9.100;2023-02-15T17:01:09;13.50;;;9.27;;
78290;SDS011;67543;45.494;9.100;2023-02-15T17:03:37;12.40;;;8.27;;
78290;SDS011;67543;45.494;9.100;2023-02-15T17:06:02;12.80;;;8.70;;
78290;SDS011;67543;45.494;9.100;2023-02-15T17:08:42;13.27;;;9.25;;
78290;SDS011;67543;45.494;9.100;2023-02-15T17:11:15;12.15;;;8.32;;
78290;SDS011;67543;45.494;9.100;2023-02-15T17:16:26;12.95;;;9.52;;
78290;SDS011;67543;45.494;9.100;2023-02-15T17:18:53;13.02;;;9.05;;
78290;SDS011;67543;45.494;9.100;2023-02-15T17:21:24;11.90;;;7.85;;
78290;SDS011;67543;45.494;9.100;2023-02-15T17:23:56;14.15;;;9.15;;
78290;SDS011;67543;45.494;9.100;2023-02-15T17:26:32;12.13;;;8.82;;
78290;SDS011;67543;45.494;9.100;2023-02-15T17:29:09;13.50;;;8.50;;
78290;SDS011;67543;45.494;9.100;2023-02-15T17:31:55;13.20;;;8.88;;
78290;SDS011;67543;45.494;9.100;2023-02-15T17:37:29;11.88;;;9.00;;
78290;SDS011;67543;45.494;9.100;2023-02-15T17:40:20;11.48;;;8.73;;
78290;SDS011;67543;45.494;9.100;2023-02-15T17:42:48;11.30;;;8.07;;
78290;SDS011;67543;45.494;9.100;2023-02-15T17:45:14;10.13;;;8.02;;
78290;SDS011;67543;45.494;9.100;2023-02-15T17:47:40;9.52;;;8.18;;
78290;SDS011;67543;45.494;9.100;2023-02-15T17:50:05;10.38;;;7.68;;
78290;SDS011;67543;45.494;9.100;2023-02-15T17:52:35;14.38;;;9.52;;